sensor_id;sensor_type;location;lat;lon;timestamp;P1;durP1;ratioP1;P2;durP2;ratioP2
32786;SDS011;19139;49.372;8.580;2024-03-08T00:00:34;29.80;;;19.63;;
32786;SDS011;19139;49.372;8.580;2024-03-08T00:03:01;28.23;;;19.83;;
32786;SDS011;19139;49.372;8.580;2024-03-08T00:05:29;29.03;;;20.83;;
32786;SDS011;19139;49.372;8.580;2024-03-08T00:07:56;31.90;;;20.13;;
32786;SDS011;19139;49.372;8.580;2024-03-08T00:10:23;29.63;;;19.80;;
32786;SDS011;19139;49.372;8.580;2024-03-08T00:12:53;27.07;;;19.13;;
32786;SDS011;19139;49.372;8.580;2024-03-08T00:15:20;27.07;;;18.30;;
32786;SDS011;19139;49.372;8.580;2024-03-08T00:17:49;25.27;;;18.73;;
32786;SDS011;19139;49.372;8.580;2024-03-08T00:20:16;26.27;;;20.03;;
32786;SDS011;19139;49.372;8.580;2024-03-08T00:22:46;28.73;;;19.33;;
32786;SDS011;19139;49.372;8.580;2024-03-08T00:25:13;29.73;;;20.37;;
32786;SDS011;19139;49.372;8.580;2024-03-08T00:27:39;24.10;;;18.23;;
32786;SDS011;19139;49.372;8.580;2024-03-08T00:30:07;27.10;;;18.90;;
32786;SDS011;19139;49.372;8.580;2024-03-08T00:32:35;28.37;;;19.60;;
32786;SDS011;19139;49.372;8.580;2024-03-08T00:35:03;29.10;;;20.67;;
32786;SDS011;19139;49.372;8.580;2024-03-08T00:37:33;29.77;;;20.37;;
32786;SDS011;19139;49.372;8.580;2024-03-08T00:40:03;28.13;;;19.47;;
32786;SDS011;19139;49.372;8.580;2024-03-08T00:42:30;27.17;;;19.30;;
32786;SDS011;19139;49.372;8.580;2024-03-08T00:44:57;26.80;;;18.83;;
32786;SDS011;19139;49.372;8.580;2024-03-08T00:47:24;26.43;;;18.53;;
32786;SDS011;19139;49.372;8.580;2024-03-08T00:49:51;30.50;;;19.60;;
32786;SDS011;19139;49.372;8.580;2024-03-08T00:52:19;30.73;;;19.70;;
32786;SDS011;19139;49.372;8.580;2024-03-08T00:54:45;27.33;;;19.13;;
32786;SDS011;19139;49.372;8.580;2024-03-08T00:57:12;30.30;;;19.13;;
32786;SDS011;19139;49.372;8.580;2024-03-08T00:59:39;28.20;;;19.67;;
32786;SDS011;19139;49.372;8.580;2024-03-08T01:02:06;29.87;;;20.17;;
32786;SDS011;19139;49.372;8.580;2024-03-08T01:04:33;28.37;;;19.33;;
32786;SDS011;19139;49.372;8.580;2024-03-08T01:06:59;30.90;;;19.53;;
32786;SDS011;19139;49.372;8.580;2024-03-08T01:09:26;29.13;;;19.67;;
32786;SDS011;19139;49.372;8.580;2024-03-08T01:11:54;28.27;;;19.53;;
32786;SDS011;19139;49.372;8.580;2024-03-08T01:14:22;29.30;;;19.80;;
32786;SDS011;19139;49.372;8.580;2024-03-08T01:16:49;27.63;;;19.23;;
32786;SDS011;19139;49.372;8.580;2024-03-08T01:19:16;26.30;;;17.87;;
32786;SDS011;19139;49.372;8.580;2024-03-08T01:21:44;31.63;;;19.80;;
32786;SDS011;19139;49.372;8.580;2024-03-08T01:24:10;30.10;;;19.87;;
32786;SDS011;19139;49.372;8.580;2024-03-08T01:26:37;28.37;;;18.73;;
32786;SDS011;19139;49.372;8.580;2024-03-08T01:29:05;29.37;;;19.87;;
32786;SDS011;19139;49.372;8.580;2024-03-08T01:31:31;27.47;;;19.53;;
32786;SDS011;19139;49.372;8.580;2024-03-08T01:33:58;26.20;;;18.47;;
32786;SDS011;19139;49.372;8.580;2024-03-08T01:36:25;27.07;;;19.20;;
32786;SDS011;19139;49.372;8.580;2024-03-08T01:38:52;27.10;;;19.50;;
32786;SDS011;19139;49.372;8.580;2024-03-08T01:41:19;27.83;;;18.83;;
32786;SDS011;19139;49.372;8.580;2024-03-08T01:43:46;30.77;;;20.00;;
32786;SDS011;19139;49.372;8.580;2024-03-08T01:46:13;28.13;;;18.97;;
32786;SDS011;19139;49.372;8.580;2024-03-08T01:48:44;29.07;;;20.00;;
32786;SDS011;19139;49.372;8.580;2024-03-08T01:51:11;29.40;;;19.77;;
32786;SDS011;19139;49.372;8.580;2024-03-08T01:53:41;28.50;;;19.27;;
32786;SDS011;19139;49.372;8.580;2024-03-08T01:56:12;28.57;;;19.57;;
32786;SDS011;19139;49.372;8.580;2024-03-08T01:58:42;31.27;;;20.63;;
32786;SDS011;19139;49.372;8.580;2024-03-08T02:01:12;30.13;;;19.57;;
32786;SDS011;19139;49.372;8.580;2024-03-08T02:03:43;29.70;;;20.50;;
32786;SDS011;19139;49.372;8.580;2024-03-08T02:06:11;30.47;;;20.13;;
32786;SDS011;19139;49.372;8.580;2024-03-08T02:08:41;28.97;;;19.93;;
32786;SDS011;19139;49.372;8.580;2024-03-08T02:11:13;32.23;;;19.80;;
32786;SDS011;19139;49.372;8.580;2024-03-08T02:13:40;30.90;;;20.10;;
32786;SDS011;19139;49.372;8.580;2024-03-08T02:16:06;29.27;;;19.60;;
32786;SDS011;19139;49.372;8.580;2024-03-08T02:18:35;30.00;;;20.37;;
32786;SDS011;19139;49.372;8.580;2024-03-08T02:21:03;30.47;;;20.10;;
32786;SDS011;19139;49.372;8.580;2024-03-08T02:23:31;30.17;;;20.17;;
32786;SDS011;19139;49.372;8.580;2024-03-08T02:25:59;34.20;;;21.20;;
32786;SDS011;19139;49.372;8.580;2024-03-08T02:28:26;30.30;;;20.37;;
32786;SDS011;19139;49.372;8.580;2024-03-08T02:30:54;30.00;;;19.87;;
32786;SDS011;19139;49.372;8.580;2024-03-08T02:33:25;32.00;;;21.30;;
32786;SDS011;19139;49.372;8.580;2024-03-08T02:35:53;31.17;;;20.87;;
32786;SDS011;19139;49.372;8.580;2024-03-08T02:38:20;30.73;;;19.73;;
32786;SDS011;19139;49.372;8.580;2024-03-08T02:40:49;30.30;;;20.73;;
32786;SDS011;19139;49.372;8.580;2024-03-08T02:43:17;32.70;;;20.43;;
32786;SDS011;19139;49.372;8.580;2024-03-08T02:45:45;28.30;;;21.27;;
32786;SDS011;19139;49.372;8.580;2024-03-08T02:48:13;31.17;;;20.20;;
32786;SDS011;19139;49.372;8.580;2024-03-08T02:50:41;27.63;;;19.03;;
32786;SDS011;19139;49.372;8.580;2024-03-08T02:53:12;31.43;;;20.70;;
32786;SDS011;19139;49.372;8.580;2024-03-08T02:55:40;26.43;;;19.13;;
32786;SDS011;19139;49.372;8.580;2024-03-08T02:58:08;28.63;;;19.93;;
32786;SDS011;19139;49.372;8.580;2024-03-08T03:00:37;27.37;;;19.50;;
32786;SDS011;19139;49.372;8.580;2024-03-08T03:03:08;27.43;;;19.33;;
32786;SDS011;19139;49.372;8.580;2024-03-08T03:05:35;27.77;;;19.53;;
32786;SDS011;19139;49.372;8.580;2024-03-08T03:08:02;31.03;;;19.47;;
32786;SDS011;19139;49.372;8.580;2024-03-08T03:10:35;32.07;;;20.77;;
32786;SDS011;19139;49.372;8.580;2024-03-08T03:13:02;27.70;;;19.60;;
32786;SDS011;19139;49.372;8.580;2024-03-08T03:15:30;28.97;;;19.73;;
32786;SDS011;19139;49.372;8.580;2024-03-08T03:17:57;30.37;;;20.10;;
32786;SDS011;19139;49.372;8.580;2024-03-08T03:20:24;29.80;;;19.13;;
32786;SDS011;19139;49.372;8.580;2024-03-08T03:22:59;30.47;;;20.07;;
32786;SDS011;19139;49.372;8.580;2024-03-08T03:25:27;30.20;;;19.77;;
32786;SDS011;19139;49.372;8.580;2024-03-08T03:28:02;28.57;;;18.63;;
32786;SDS011;19139;49.372;8.580;2024-03-08T03:30:30;27.60;;;19.10;;
32786;SDS011;19139;49.372;8.580;2024-03-08T03:33:00;32.17;;;20.33;;
32786;SDS011;19139;49.372;8.580;2024-03-08T03:35:28;31.57;;;21.33;;
32786;SDS011;19139;49.372;8.580;2024-03-08T03:37:57;30.83;;;19.57;;
32786;SDS011;19139;49.372;8.580;2024-03-08T03:40:36;31.20;;;19.53;;
32786;SDS011;19139;49.372;8.580;2024-03-08T03:43:03;29.30;;;19.27;;
32786;SDS011;19139;49.372;8.580;2024-03-08T03:45:30;31.77;;;20.27;;
32786;SDS011;19139;49.372;8.580;2024-03-08T03:48:03;31.83;;;20.17;;
32786;SDS011;19139;49.372;8.580;2024-03-08T03:50:31;29.17;;;19.43;;
32786;SDS011;19139;49.372;8.580;2024-03-08T03:53:00;30.20;;;20.10;;
32786;SDS011;19139;49.372;8.580;2024-03-08T03:55:28;28.10;;;19.87;;
32786;SDS011;19139;49.372;8.580;2024-03-08T03:57:55;31.57;;;21.17;;
32786;SDS011;19139;49.372;8.580;2024-03-08T04:00:22;31.53;;;20.67;;
32786;SDS011;19139;49.372;8.580;2024-03-08T04:02:48;31.63;;;20.43;;
32786;SDS011;19139;49.372;8.580;2024-03-08T04:05:16;31.67;;;20.03;;
32786;SDS011;19139;49.372;8.580;2024-03-08T04:07:43;32.73;;;21.77;;
32786;SDS011;19139;49.372;8.580;2024-03-08T04:10:11;31.33;;;19.80;;
32786;SDS011;19139;49.372;8.580;2024-03-08T04:12:38;27.50;;;20.30;;
32786;SDS011;19139;49.372;8.580;2024-03-08T04:15:04;32.07;;;20.07;;
32786;SDS011;19139;49.372;8.580;2024-03-08T04:17:33;30.60;;;20.80;;
32786;SDS011;19139;49.372;8.580;2024-03-08T04:20:06;28.73;;;18.57;;
32786;SDS011;19139;49.372;8.580;2024-03-08T04:22:37;32.40;;;19.83;;
32786;SDS011;19139;49.372;8.580;2024-03-08T04:25:03;33.80;;;22.00;;
32786;SDS011;19139;49.372;8.580;2024-03-08T04:27:32;32.17;;;19.87;;
32786;SDS011;19139;49.372;8.580;2024-03-08T04:29:59;33.00;;;19.47;;
32786;SDS011;19139;49.372;8.580;2024-03-08T04:32:26;29.93;;;20.00;;
32786;SDS011;19139;49.372;8.580;2024-03-08T04:34:55;30.07;;;20.73;;
32786;SDS011;19139;49.372;8.580;2024-03-08T04:37:23;31.40;;;20.77;;
32786;SDS011;19139;49.372;8.580;2024-03-08T04:39:51;30.80;;;20.17;;
32786;SDS011;19139;49.372;8.580;2024-03-08T04:42:17;29.33;;;19.70;;
32786;SDS011;19139;49.372;8.580;2024-03-08T04:44:44;28.43;;;19.47;;
32786;SDS011;19139;49.372;8.580;2024-03-08T04:47:11;31.00;;;20.13;;
32786;SDS011;19139;49.372;8.580;2024-03-08T04:49:38;30.57;;;20.73;;
32786;SDS011;19139;49.372;8.580;2024-03-08T04:52:05;31.27;;;20.73;;
32786;SDS011;19139;49.372;8.580;2024-03-08T04:54:33;28.80;;;19.73;;
32786;SDS011;19139;49.372;8.580;2024-03-08T04:57:00;31.57;;;19.73;;
32786;SDS011;19139;49.372;8.580;2024-03-08T04:59:29;32.00;;;20.03;;
32786;SDS011;19139;49.372;8.580;2024-03-08T05:01:56;31.37;;;20.67;;
32786;SDS011;19139;49.372;8.580;2024-03-08T05:04:23;33.37;;;21.60;;
32786;SDS011;19139;49.372;8.580;2024-03-08T05:06:49;29.87;;;20.47;;
32786;SDS011;19139;49.372;8.580;2024-03-08T05:09:16;34.37;;;19.80;;
32786;SDS011;19139;49.372;8.580;2024-03-08T05:11:44;30.17;;;21.53;;
32786;SDS011;19139;49.372;8.580;2024-03-08T05:14:11;36.43;;;22.20;;
32786;SDS011;19139;49.372;8.580;2024-03-08T05:16:43;35.70;;;21.20;;
32786;SDS011;19139;49.372;8.580;2024-03-08T05:19:15;30.93;;;20.10;;
32786;SDS011;19139;49.372;8.580;2024-03-08T05:21:45;30.00;;;20.70;;
32786;SDS011;19139;49.372;8.580;2024-03-08T05:24:13;35.47;;;21.67;;
32786;SDS011;19139;49.372;8.580;2024-03-08T05:26:45;32.70;;;21.60;;
32786;SDS011;19139;49.372;8.580;2024-03-08T05:29:14;33.90;;;20.03;;
32786;SDS011;19139;49.372;8.580;2024-03-08T05:31:48;31.83;;;19.90;;
32786;SDS011;19139;49.372;8.580;2024-03-08T05:34:16;33.13;;;19.97;;
32786;SDS011;19139;49.372;8.580;2024-03-08T05:36:43;34.17;;;20.43;;
32786;SDS011;19139;49.372;8.580;2024-03-08T05:39:11;34.30;;;20.60;;
32786;SDS011;19139;49.372;8.580;2024-03-08T05:41:41;32.77;;;21.00;;
32786;SDS011;19139;49.372;8.580;2024-03-08T05:44:08;30.67;;;20.33;;
32786;SDS011;19139;49.372;8.580;2024-03-08T05:46:36;36.67;;;21.20;;
32786;SDS011;19139;49.372;8.580;2024-03-08T05:49:03;28.50;;;19.70;;
32786;SDS011;19139;49.372;8.580;2024-03-08T05:51:37;32.40;;;21.43;;
32786;SDS011;19139;49.372;8.580;2024-03-08T05:54:05;33.77;;;21.30;;
32786;SDS011;19139;49.372;8.580;2024-03-08T05:56:36;33.53;;;20.57;;
32786;SDS011;19139;49.372;8.580;2024-03-08T05:59:03;33.77;;;21.27;;
32786;SDS011;19139;49.372;8.580;2024-03-08T06:01:30;31.87;;;21.27;;
32786;SDS011;19139;49.372;8.580;2024-03-08T06:03:57;32.40;;;21.23;;
32786;SDS011;19139;49.372;8.580;2024-03-08T06:06:24;34.13;;;21.10;;
32786;SDS011;19139;49.372;8.580;2024-03-08T06:08:51;35.13;;;22.23;;
32786;SDS011;19139;49.372;8.580;2024-03-08T06:11:19;34.57;;;21.63;;
32786;SDS011;19139;49.372;8.580;2024-03-08T06:13:47;38.83;;;22.97;;
32786;SDS011;19139;49.372;8.580;2024-03-08T06:16:14;36.13;;;22.93;;
32786;SDS011;19139;49.372;8.580;2024-03-08T06:18:41;38.43;;;23.17;;
32786;SDS011;19139;49.372;8.580;2024-03-08T06:21:08;36.27;;;22.57;;
32786;SDS011;19139;49.372;8.580;2024-03-08T06:23:37;32.67;;;21.53;;
32786;SDS011;19139;49.372;8.580;2024-03-08T06:26:05;37.20;;;22.30;;
32786;SDS011;19139;49.372;8.580;2024-03-08T06:28:31;34.00;;;22.13;;
32786;SDS011;19139;49.372;8.580;2024-03-08T06:30:58;35.73;;;22.67;;
32786;SDS011;19139;49.372;8.580;2024-03-08T06:33:25;33.27;;;21.73;;
32786;SDS011;19139;49.372;8.580;2024-03-08T06:35:55;33.53;;;21.47;;
32786;SDS011;19139;49.372;8.580;2024-03-08T06:38:24;33.40;;;22.67;;
32786;SDS011;19139;49.372;8.580;2024-03-08T06:40:51;34.33;;;23.13;;
32786;SDS011;19139;49.372;8.580;2024-03-08T06:43:18;33.60;;;21.63;;
32786;SDS011;19139;49.372;8.580;2024-03-08T06:45:45;34.83;;;21.83;;
32786;SDS011;19139;49.372;8.580;2024-03-08T06:48:17;31.37;;;21.90;;
32786;SDS011;19139;49.372;8.580;2024-03-08T06:50:45;31.93;;;20.87;;
32786;SDS011;19139;49.372;8.580;2024-03-08T06:53:13;33.30;;;21.33;;
32786;SDS011;19139;49.372;8.580;2024-03-08T06:55:41;33.37;;;21.07;;
32786;SDS011;19139;49.372;8.580;2024-03-08T06:58:08;32.63;;;21.03;;
32786;SDS011;19139;49.372;8.580;2024-03-08T07:00:37;33.87;;;22.93;;
32786;SDS011;19139;49.372;8.580;2024-03-08T07:03:06;30.57;;;22.40;;
32786;SDS011;19139;49.372;8.580;2024-03-08T07:05:38;31.43;;;21.10;;
32786;SDS011;19139;49.372;8.580;2024-03-08T07:08:06;31.37;;;21.57;;
32786;SDS011;19139;49.372;8.580;2024-03-08T07:10:34;34.53;;;21.03;;
32786;SDS011;19139;49.372;8.580;2024-03-08T07:13:01;36.07;;;22.37;;
32786;SDS011;19139;49.372;8.580;2024-03-08T07:15:28;36.53;;;23.37;;
32786;SDS011;19139;49.372;8.580;2024-03-08T07:17:55;32.47;;;20.93;;
32786;SDS011;19139;49.372;8.580;2024-03-08T07:20:22;34.07;;;21.43;;
32786;SDS011;19139;49.372;8.580;2024-03-08T07:22:48;32.33;;;22.70;;
32786;SDS011;19139;49.372;8.580;2024-03-08T07:25:17;32.73;;;22.23;;
32786;SDS011;19139;49.372;8.580;2024-03-08T07:27:48;33.40;;;22.17;;
32786;SDS011;19139;49.372;8.580;2024-03-08T07:30:15;34.90;;;21.53;;
32786;SDS011;19139;49.372;8.580;2024-03-08T07:33:03;36.03;;;23.00;;
32786;SDS011;19139;49.372;8.580;2024-03-08T07:35:30;32.30;;;21.47;;
32786;SDS011;19139;49.372;8.580;2024-03-08T07:37:57;30.30;;;21.30;;
32786;SDS011;19139;49.372;8.580;2024-03-08T07:40:26;33.43;;;21.17;;
32786;SDS011;19139;49.372;8.580;2024-03-08T07:42:53;30.77;;;20.93;;
32786;SDS011;19139;49.372;8.580;2024-03-08T07:45:19;29.43;;;20.73;;
32786;SDS011;19139;49.372;8.580;2024-03-08T07:47:48;31.20;;;20.33;;
32786;SDS011;19139;49.372;8.580;2024-03-08T07:50:15;32.43;;;20.77;;
32786;SDS011;19139;49.372;8.580;2024-03-08T07:52:43;31.73;;;21.93;;
32786;SDS011;19139;49.372;8.580;2024-03-08T07:55:09;29.50;;;19.97;;
32786;SDS011;19139;49.372;8.580;2024-03-08T07:57:39;32.73;;;21.37;;
32786;SDS011;19139;49.372;8.580;2024-03-08T08:00:06;32.63;;;21.73;;
32786;SDS011;19139;49.372;8.580;2024-03-08T08:02:34;32.93;;;21.70;;
32786;SDS011;19139;49.372;8.580;2024-03-08T08:05:05;31.20;;;21.07;;
32786;SDS011;19139;49.372;8.580;2024-03-08T08:07:32;31.70;;;21.67;;
32786;SDS011;19139;49.372;8.580;2024-03-08T08:09:59;31.17;;;20.83;;
32786;SDS011;19139;49.372;8.580;2024-03-08T08:12:26;29.10;;;20.83;;
32786;SDS011;19139;49.372;8.580;2024-03-08T08:14:54;27.70;;;19.37;;
32786;SDS011;19139;49.372;8.580;2024-03-08T08:17:21;29.40;;;20.47;;
32786;SDS011;19139;49.372;8.580;2024-03-08T08:19:48;30.50;;;21.97;;
32786;SDS011;19139;49.372;8.580;2024-03-08T08:22:14;31.57;;;21.80;;
32786;SDS011;19139;49.372;8.580;2024-03-08T08:24:41;32.23;;;21.80;;
32786;SDS011;19139;49.372;8.580;2024-03-08T08:27:08;31.33;;;21.10;;
32786;SDS011;19139;49.372;8.580;2024-03-08T08:29:35;31.33;;;21.23;;
32786;SDS011;19139;49.372;8.580;2024-03-08T08:32:02;29.30;;;20.70;;
32786;SDS011;19139;49.372;8.580;2024-03-08T08:34:29;28.60;;;20.33;;
32786;SDS011;19139;49.372;8.580;2024-03-08T08:36:57;29.67;;;19.90;;
32786;SDS011;19139;49.372;8.580;2024-03-08T08:39:24;28.93;;;21.50;;
32786;SDS011;19139;49.372;8.580;2024-03-08T08:41:52;29.33;;;20.20;;
32786;SDS011;19139;49.372;8.580;2024-03-08T08:44:21;27.87;;;19.13;;
32786;SDS011;19139;49.372;8.580;2024-03-08T08:46:48;27.67;;;19.30;;
32786;SDS011;19139;49.372;8.580;2024-03-08T08:49:16;29.37;;;20.17;;
32786;SDS011;19139;49.372;8.580;2024-03-08T08:51:49;28.00;;;19.53;;
32786;SDS011;19139;49.372;8.580;2024-03-08T08:54:18;29.60;;;20.13;;
32786;SDS011;19139;49.372;8.580;2024-03-08T08:56:45;28.77;;;20.70;;
32786;SDS011;19139;49.372;8.580;2024-03-08T08:59:11;26.90;;;18.87;;
32786;SDS011;19139;49.372;8.580;2024-03-08T09:01:40;27.37;;;19.33;;
32786;SDS011;19139;49.372;8.580;2024-03-08T09:04:06;29.07;;;21.03;;
32786;SDS011;19139;49.372;8.580;2024-03-08T09:06:34;28.77;;;20.30;;
32786;SDS011;19139;49.372;8.580;2024-03-08T09:09:02;28.07;;;20.30;;
32786;SDS011;19139;49.372;8.580;2024-03-08T09:11:32;29.17;;;19.73;;
32786;SDS011;19139;49.372;8.580;2024-03-08T09:13:59;29.70;;;21.33;;
32786;SDS011;19139;49.372;8.580;2024-03-08T09:16:26;30.63;;;20.40;;
32786;SDS011;19139;49.372;8.580;2024-03-08T09:18:52;29.77;;;20.50;;
32786;SDS011;19139;49.372;8.580;2024-03-08T09:21:19;31.00;;;20.73;;
32786;SDS011;19139;49.372;8.580;2024-03-08T09:23:49;30.63;;;19.73;;
32786;SDS011;19139;49.372;8.580;2024-03-08T09:26:15;27.50;;;19.20;;
32786;SDS011;19139;49.372;8.580;2024-03-08T09:28:53;26.73;;;19.60;;
32786;SDS011;19139;49.372;8.580;2024-03-08T09:31:23;28.67;;;20.30;;
32786;SDS011;19139;49.372;8.580;2024-03-08T09:33:50;27.37;;;19.17;;
32786;SDS011;19139;49.372;8.580;2024-03-08T09:36:17;23.07;;;17.83;;
32786;SDS011;19139;49.372;8.580;2024-03-08T09:38:43;25.73;;;17.83;;
32786;SDS011;19139;49.372;8.580;2024-03-08T09:41:10;29.83;;;18.70;;
32786;SDS011;19139;49.372;8.580;2024-03-08T09:43:37;26.60;;;18.47;;
32786;SDS011;19139;49.372;8.580;2024-03-08T09:46:04;26.73;;;19.00;;
32786;SDS011;19139;49.372;8.580;2024-03-08T09:48:34;25.17;;;19.07;;
32786;SDS011;19139;49.372;8.580;2024-03-08T09:51:02;27.30;;;19.40;;
32786;SDS011;19139;49.372;8.580;2024-03-08T09:53:29;26.60;;;19.00;;
32786;SDS011;19139;49.372;8.580;2024-03-08T09:55:57;28.07;;;18.70;;
32786;SDS011;19139;49.372;8.580;2024-03-08T09:58:24;26.73;;;18.93;;
32786;SDS011;19139;49.372;8.580;2024-03-08T10:00:59;25.00;;;17.43;;
32786;SDS011;19139;49.372;8.580;2024-03-08T10:03:30;26.60;;;19.67;;
32786;SDS011;19139;49.372;8.580;2024-03-08T10:06:01;26.67;;;18.87;;
32786;SDS011;19139;49.372;8.580;2024-03-08T10:08:28;25.87;;;18.93;;
32786;SDS011;19139;49.372;8.580;2024-03-08T10:10:57;26.30;;;18.70;;
32786;SDS011;19139;49.372;8.580;2024-03-08T10:13:25;26.33;;;18.67;;
32786;SDS011;19139;49.372;8.580;2024-03-08T10:15:55;28.00;;;18.80;;
32786;SDS011;19139;49.372;8.580;2024-03-08T10:18:22;27.70;;;19.67;;
32786;SDS011;19139;49.372;8.580;2024-03-08T10:21:02;26.47;;;19.40;;
32786;SDS011;19139;49.372;8.580;2024-03-08T10:23:33;24.20;;;18.00;;
32786;SDS011;19139;49.372;8.580;2024-03-08T10:26:10;25.73;;;18.67;;
32786;SDS011;19139;49.372;8.580;2024-03-08T10:28:41;29.60;;;19.27;;
32786;SDS011;19139;49.372;8.580;2024-03-08T10:31:09;23.63;;;16.73;;
32786;SDS011;19139;49.372;8.580;2024-03-08T10:33:36;28.53;;;20.13;;
32786;SDS011;19139;49.372;8.580;2024-03-08T10:36:09;30.75;;;23.02;;
32786;SDS011;19139;49.372;8.580;2024-03-08T10:38:38;31.90;;;21.83;;
32786;SDS011;19139;49.372;8.580;2024-03-08T10:41:09;29.57;;;21.37;;
32786;SDS011;19139;49.372;8.580;2024-03-08T10:43:40;24.97;;;18.80;;
32786;SDS011;19139;49.372;8.580;2024-03-08T10:46:41;25.33;;;18.27;;
32786;SDS011;19139;49.372;8.580;2024-03-08T10:49:17;29.03;;;20.87;;
32786;SDS011;19139;49.372;8.580;2024-03-08T10:51:46;27.87;;;19.17;;
32786;SDS011;19139;49.372;8.580;2024-03-08T10:54:17;27.30;;;19.27;;
32786;SDS011;19139;49.372;8.580;2024-03-08T10:56:47;26.43;;;19.07;;
32786;SDS011;19139;49.372;8.580;2024-03-08T10:59:16;24.40;;;17.93;;
32786;SDS011;19139;49.372;8.580;2024-03-08T11:01:45;23.43;;;17.50;;
32786;SDS011;19139;49.372;8.580;2024-03-08T11:04:12;25.63;;;19.03;;
32786;SDS011;19139;49.372;8.580;2024-03-08T11:09:27;24.70;;;18.40;;
32786;SDS011;19139;49.372;8.580;2024-03-08T11:14:57;25.73;;;19.03;;
32786;SDS011;19139;49.372;8.580;2024-03-08T11:19:56;27.63;;;19.30;;
32786;SDS011;19139;49.372;8.580;2024-03-08T11:22:28;27.10;;;19.73;;
32786;SDS011;19139;49.372;8.580;2024-03-08T11:25:01;26.83;;;20.57;;
32786;SDS011;19139;49.372;8.580;2024-03-08T11:27:32;25.23;;;19.03;;
32786;SDS011;19139;49.372;8.580;2024-03-08T11:30:06;25.07;;;19.47;;
32786;SDS011;19139;49.372;8.580;2024-03-08T11:32:48;27.23;;;20.57;;
32786;SDS011;19139;49.372;8.580;2024-03-08T11:35:19;29.97;;;20.87;;
32786;SDS011;19139;49.372;8.580;2024-03-08T11:37:47;26.40;;;18.93;;
32786;SDS011;19139;49.372;8.580;2024-03-08T11:40:14;24.73;;;19.63;;
32786;SDS011;19139;49.372;8.580;2024-03-08T11:42:46;25.50;;;18.80;;
32786;SDS011;19139;49.372;8.580;2024-03-08T11:45:18;25.13;;;19.03;;
32786;SDS011;19139;49.372;8.580;2024-03-08T11:47:47;27.67;;;19.73;;
32786;SDS011;19139;49.372;8.580;2024-03-08T11:50:16;25.43;;;20.20;;
32786;SDS011;19139;49.372;8.580;2024-03-08T11:52:46;26.87;;;20.37;;
32786;SDS011;19139;49.372;8.580;2024-03-08T11:55:13;25.17;;;19.47;;
32786;SDS011;19139;49.372;8.580;2024-03-08T11:57:40;30.97;;;21.37;;
32786;SDS011;19139;49.372;8.580;2024-03-08T12:00:14;30.80;;;22.03;;
32786;SDS011;19139;49.372;8.580;2024-03-08T12:03:05;26.93;;;21.53;;
32786;SDS011;19139;49.372;8.580;2024-03-08T12:05:33;27.60;;;20.97;;
32786;SDS011;19139;49.372;8.580;2024-03-08T12:08:00;31.87;;;21.47;;
32786;SDS011;19139;49.372;8.580;2024-03-08T12:10:29;26.13;;;20.87;;
32786;SDS011;19139;49.372;8.580;2024-03-08T12:12:57;31.07;;;24.40;;
32786;SDS011;19139;49.372;8.580;2024-03-08T12:15:29;35.57;;;27.67;;
32786;SDS011;19139;49.372;8.580;2024-03-08T12:18:00;27.50;;;21.17;;
32786;SDS011;19139;49.372;8.580;2024-03-08T12:20:27;30.50;;;26.40;;
32786;SDS011;19139;49.372;8.580;2024-03-08T12:23:05;27.90;;;22.87;;
32786;SDS011;19139;49.372;8.580;2024-03-08T12:25:42;24.87;;;20.53;;
32786;SDS011;19139;49.372;8.580;2024-03-08T12:28:11;29.30;;;22.43;;
32786;SDS011;19139;49.372;8.580;2024-03-08T12:30:50;33.20;;;25.10;;
32786;SDS011;19139;49.372;8.580;2024-03-08T12:33:33;29.33;;;23.43;;
32786;SDS011;19139;49.372;8.580;2024-03-08T12:36:03;28.67;;;21.10;;
32786;SDS011;19139;49.372;8.580;2024-03-08T12:38:39;24.90;;;19.83;;
32786;SDS011;19139;49.372;8.580;2024-03-08T12:41:09;26.33;;;21.17;;
32786;SDS011;19139;49.372;8.580;2024-03-08T12:43:36;27.57;;;21.97;;
32786;SDS011;19139;49.372;8.580;2024-03-08T12:46:03;23.70;;;19.13;;
32786;SDS011;19139;49.372;8.580;2024-03-08T12:48:34;26.17;;;20.57;;
32786;SDS011;19139;49.372;8.580;2024-03-08T12:51:01;26.27;;;21.10;;
32786;SDS011;19139;49.372;8.580;2024-03-08T12:53:28;27.10;;;20.77;;
32786;SDS011;19139;49.372;8.580;2024-03-08T12:55:55;26.23;;;19.50;;
32786;SDS011;19139;49.372;8.580;2024-03-08T12:58:23;34.40;;;21.80;;
32786;SDS011;19139;49.372;8.580;2024-03-08T13:00:49;26.80;;;21.13;;
32786;SDS011;19139;49.372;8.580;2024-03-08T13:03:19;25.87;;;20.13;;
32786;SDS011;19139;49.372;8.580;2024-03-08T13:05:47;28.17;;;20.80;;
32786;SDS011;19139;49.372;8.580;2024-03-08T13:08:14;25.77;;;20.33;;
32786;SDS011;19139;49.372;8.580;2024-03-08T13:10:42;26.10;;;18.80;;
32786;SDS011;19139;49.372;8.580;2024-03-08T13:13:10;26.37;;;19.80;;
32786;SDS011;19139;49.372;8.580;2024-03-08T13:15:44;28.70;;;21.37;;
32786;SDS011;19139;49.372;8.580;2024-03-08T13:18:10;25.93;;;19.13;;
32786;SDS011;19139;49.372;8.580;2024-03-08T13:20:37;25.97;;;19.40;;
32786;SDS011;19139;49.372;8.580;2024-03-08T13:23:13;28.80;;;19.80;;
32786;SDS011;19139;49.372;8.580;2024-03-08T13:25:39;25.80;;;19.90;;
32786;SDS011;19139;49.372;8.580;2024-03-08T13:28:07;27.13;;;20.60;;
32786;SDS011;19139;49.372;8.580;2024-03-08T13:30:35;26.27;;;20.97;;
32786;SDS011;19139;49.372;8.580;2024-03-08T13:33:01;25.93;;;19.73;;
32786;SDS011;19139;49.372;8.580;2024-03-08T13:35:31;23.53;;;19.10;;
32786;SDS011;19139;49.372;8.580;2024-03-08T13:37:59;23.57;;;19.60;;
32786;SDS011;19139;49.372;8.580;2024-03-08T13:40:26;26.10;;;19.70;;
32786;SDS011;19139;49.372;8.580;2024-03-08T13:42:53;24.20;;;19.53;;
32786;SDS011;19139;49.372;8.580;2024-03-08T13:45:20;22.63;;;19.03;;
32786;SDS011;19139;49.372;8.580;2024-03-08T13:47:51;26.37;;;20.50;;
32786;SDS011;19139;49.372;8.580;2024-03-08T13:50:20;23.83;;;19.53;;
32786;SDS011;19139;49.372;8.580;2024-03-08T13:52:50;26.43;;;20.00;;
32786;SDS011;19139;49.372;8.580;2024-03-08T13:55:20;24.47;;;19.30;;
32786;SDS011;19139;49.372;8.580;2024-03-08T13:57:48;27.73;;;20.13;;
32786;SDS011;19139;49.372;8.580;2024-03-08T14:00:15;27.07;;;20.17;;
32786;SDS011;19139;49.372;8.580;2024-03-08T14:02:42;23.93;;;19.70;;
32786;SDS011;19139;49.372;8.580;2024-03-08T14:05:09;25.47;;;19.53;;
32786;SDS011;19139;49.372;8.580;2024-03-08T14:07:38;24.13;;;20.60;;
32786;SDS011;19139;49.372;8.580;2024-03-08T14:10:05;24.93;;;19.23;;
32786;SDS011;19139;49.372;8.580;2024-03-08T14:12:33;25.33;;;20.57;;
32786;SDS011;19139;49.372;8.580;2024-03-08T14:15:01;23.93;;;18.10;;
32786;SDS011;19139;49.372;8.580;2024-03-08T14:17:29;27.13;;;19.17;;
32786;SDS011;19139;49.372;8.580;2024-03-08T14:19:57;24.93;;;19.40;;
32786;SDS011;19139;49.372;8.580;2024-03-08T14:22:25;24.53;;;19.23;;
32786;SDS011;19139;49.372;8.580;2024-03-08T14:24:52;24.27;;;20.17;;
32786;SDS011;19139;49.372;8.580;2024-03-08T14:27:21;23.20;;;18.50;;
32786;SDS011;19139;49.372;8.580;2024-03-08T14:29:48;23.70;;;18.67;;
32786;SDS011;19139;49.372;8.580;2024-03-08T14:32:15;23.10;;;18.03;;
32786;SDS011;19139;49.372;8.580;2024-03-08T14:34:45;24.47;;;19.20;;
32786;SDS011;19139;49.372;8.580;2024-03-08T14:37:12;25.77;;;18.63;;